sensor_id;sensor_type;location;lat;lon;timestamp;temperature;humidity
31729;DHT22;18309;43.658;1.312;2022-11-14T00:00:25;16.00;99.90
31729;DHT22;18309;43.658;1.312;2022-11-14T00:02:50;15.90;99.90
31729;DHT22;18309;43.658;1.312;2022-11-14T00:05:17;15.90;99.90
31729;DHT22;18309;43.658;1.312;2022-11-14T00:07:42;15.90;99.90
31729;DHT22;18309;43.658;1.312;2022-11-14T00:10:09;15.90;99.90
31729;DHT22;18309;43.658;1.312;2022-11-14T00:12:35;15.90;99.90
31729;DHT22;18309;43.658;1.312;2022-11-14T00:15:00;15.90;99.90
31729;DHT22;18309;43.658;1.312;2022-11-14T00:17:26;15.90;99.90
31729;DHT22;18309;43.658;1.312;2022-11-14T00:19:52;15.90;99.90
31729;DHT22;18309;43.658;1.312;2022-11-14T00:22:18;15.80;99.90
31729;DHT22;18309;43.658;1.312;2022-11-14T00:24:43;15.90;99.90
31729;DHT22;18309;43.658;1.312;2022-11-14T00:27:09;15.80;99.90
31729;DHT22;18309;43.658;1.312;2022-11-14T00:29:35;15.80;99.90
31729;DHT22;18309;43.658;1.312;2022-11-14T00:32:01;15.80;99.90
31729;DHT22;18309;43.658;1.312;2022-11-14T00:34:27;15.80;99.90
31729;DHT22;18309;43.658;1.312;2022-11-14T00:36:52;15.80;99.90
31729;DHT22;18309;43.658;1.312;2022-11-14T00:39:18;15.80;99.90
31729;DHT22;18309;43.658;1.312;2022-11-14T00:41:43;15.80;99.90
31729;DHT22;18309;43.658;1.312;2022-11-14T00:44:09;15.80;99.90
31729;DHT22;18309;43.658;1.312;2022-11-14T00:46:36;15.80;99.90
31729;DHT22;18309;43.658;1.312;2022-11-14T00:49:01;15.80;99.90
31729;DHT22;18309;43.658;1.312;2022-11-14T00:51:27;15.80;99.90
31729;DHT22;18309;43.658;1.312;2022-11-14T00:53:53;15.80;99.90
31729;DHT22;18309;43.658;1.312;2022-11-14T00:56:18;15.80;99.90
31729;DHT22;18309;43.658;1.312;2022-11-14T00:58:44;15.80;99.90
31729;DHT22;18309;43.658;1.312;2022-11-14T01:01:10;15.80;99.90
31729;DHT22;18309;43.658;1.312;2022-11-14T01:03:35;15.70;99.90
31729;DHT22;18309;43.658;1.312;2022-11-14T01:06:07;15.70;99.90
31729;DHT22;18309;43.658;1.312;2022-11-14T01:08:33;15.70;99.90
31729;DHT22;18309;43.658;1.312;2022-11-14T01:10:59;15.70;99.90
31729;DHT22;18309;43.658;1.312;2022-11-14T01:13:26;15.70;99.90
31729;DHT22;18309;43.658;1.312;2022-11-14T01:15:59;15.70;99.90
31729;DHT22;18309;43.658;1.312;2022-11-14T01:18:25;15.70;99.90
31729;DHT22;18309;43.658;1.312;2022-11-14T01:20:51;15.70;99.90
31729;DHT22;18309;43.658;1.312;2022-11-14T01:23:17;15.70;99.90
31729;DHT22;18309;43.658;1.312;2022-11-14T01:25:43;15.70;99.90
31729;DHT22;18309;43.658;1.312;2022-11-14T01:28:12;15.70;99.90
31729;DHT22;18309;43.658;1.312;2022-11-14T01:30:39;15.70;99.90
31729;DHT22;18309;43.658;1.312;2022-11-14T01:33:05;15.70;99.90
31729;DHT22;18309;43.658;1.312;2022-11-14T01:35:36;15.70;99.90
31729;DHT22;18309;43.658;1.312;2022-11-14T01:38:02;15.60;99.90
31729;DHT22;18309;43.658;1.312;2022-11-14T01:40:28;15.70;99.90
31729;DHT22;18309;43.658;1.312;2022-11-14T01:46:01;15.60;99.90
31729;DHT22;18309;43.658;1.312;2022-11-14T01:49:04;15.60;99.90
31729;DHT22;18309;43.658;1.312;2022-11-14T01:51:34;15.60;99.90
31729;DHT22;18309;43.658;1.312;2022-11-14T01:54:06;15.60;99.90
31729;DHT22;18309;43.658;1.312;2022-11-14T01:56:36;15.60;99.90
31729;DHT22;18309;43.658;1.312;2022-11-14T01:59:06;15.60;99.90
31729;DHT22;18309;43.658;1.312;2022-11-14T02:01:37;15.60;99.90
31729;DHT22;18309;43.658;1.312;2022-11-14T02:04:06;15.60;99.90
31729;DHT22;18309;43.658;1.312;2022-11-14T02:06:32;15.60;99.90
31729;DHT22;18309;43.658;1.312;2022-11-14T02:09:04;15.60;99.90
31729;DHT22;18309;43.658;1.312;2022-11-14T02:11:34;15.60;99.90
31729;DHT22;18309;43.658;1.312;2022-11-14T02:14:00;15.60;99.90
31729;DHT22;18309;43.658;1.312;2022-11-14T02:16:27;15.60;99.90
31729;DHT22;18309;43.658;1.312;2022-11-14T02:18:53;15.60;99.90
31729;DHT22;18309;43.658;1.312;2022-11-14T02:21:19;15.60;99.90
31729;DHT22;18309;43.658;1.312;2022-11-14T02:23:44;15.60;99.90
31729;DHT22;18309;43.658;1.312;2022-11-14T02:26:10;15.60;99.90
31729;DHT22;18309;43.658;1.312;2022-11-14T02:28:36;15.50;99.90
31729;DHT22;18309;43.658;1.312;2022-11-14T02:31:01;15.60;99.90
31729;DHT22;18309;43.658;1.312;2022-11-14T02:33:27;15.60;99.90
31729;DHT22;18309;43.658;1.312;2022-11-14T02:35:53;15.60;99.90
31729;DHT22;18309;43.658;1.312;2022-11-14T02:38:19;15.60;99.90
31729;DHT22;18309;43.658;1.312;2022-11-14T02:40:44;15.50;99.90
31729;DHT22;18309;43.658;1.312;2022-11-14T02:43:10;15.60;99.90
31729;DHT22;18309;43.658;1.312;2022-11-14T02:45:36;15.60;99.90
31729;DHT22;18309;43.658;1.312;2022-11-14T02:48:02;15.50;99.90
31729;DHT22;18309;43.658;1.312;2022-11-14T02:50:28;15.50;99.90
31729;DHT22;18309;43.658;1.312;2022-11-14T02:52:53;15.50;99.90
31729;DHT22;18309;43.658;1.312;2022-11-14T02:55:20;15.50;99.90
31729;DHT22;18309;43.658;1.312;2022-11-14T02:57:46;15.50;99.90
31729;DHT22;18309;43.658;1.312;2022-11-14T03:00:12;15.50;99.90
31729;DHT22;18309;43.658;1.312;2022-11-14T03:02:38;15.50;99.90
31729;DHT22;18309;43.658;1.312;2022-11-14T03:05:04;15.50;99.90
31729;DHT22;18309;43.658;1.312;2022-11-14T03:07:29;15.50;99.90
31729;DHT22;18309;43.658;1.312;2022-11-14T03:09:55;15.50;99.90
31729;DHT22;18309;43.658;1.312;2022-11-14T03:12:21;15.50;99.90
31729;DHT22;18309;43.658;1.312;2022-11-14T03:14:46;15.50;99.90
31729;DHT22;18309;43.658;1.312;2022-11-14T03:17:12;15.50;99.90
31729;DHT22;18309;43.658;1.312;2022-11-14T03:19:38;15.50;99.90
31729;DHT22;18309;43.658;1.312;2022-11-14T03:22:03;15.50;99.90
31729;DHT22;18309;43.658;1.312;2022-11-14T03:24:29;15.40;99.90
31729;DHT22;18309;43.658;1.312;2022-11-14T03:26:55;15.50;99.90
31729;DHT22;18309;43.658;1.312;2022-11-14T03:29:21;15.50;99.90
31729;DHT22;18309;43.658;1.312;2022-11-14T03:31:46;15.50;99.90
31729;DHT22;18309;43.658;1.312;2022-11-14T03:34:12;15.40;99.90
31729;DHT22;18309;43.658;1.312;2022-11-14T03:36:38;15.50;99.90
31729;DHT22;18309;43.658;1.312;2022-11-14T03:39:04;15.40;99.90
31729;DHT22;18309;43.658;1.312;2022-11-14T03:41:30;15.40;99.90
31729;DHT22;18309;43.658;1.312;2022-11-14T03:43:56;15.40;99.90
31729;DHT22;18309;43.658;1.312;2022-11-14T03:46:22;15.40;99.90
31729;DHT22;18309;43.658;1.312;2022-11-14T03:48:47;15.40;99.90
31729;DHT22;18309;43.658;1.312;2022-11-14T03:51:13;15.40;99.90
31729;DHT22;18309;43.658;1.312;2022-11-14T03:53:38;15.40;99.90
31729;DHT22;18309;43.658;1.312;2022-11-14T03:56:04;15.40;99.90
31729;DHT22;18309;43.658;1.312;2022-11-14T03:58:30;15.40;99.90
31729;DHT22;18309;43.658;1.312;2022-11-14T04:00:56;15.40;99.90
31729;DHT22;18309;43.658;1.312;2022-11-14T04:03:22;15.40;99.90
31729;DHT22;18309;43.658;1.312;2022-11-14T04:05:48;15.40;99.90
31729;DHT22;18309;43.658;1.312;2022-11-14T04:08:14;15.40;99.90
31729;DHT22;18309;43.658;1.312;2022-11-14T04:10:40;15.50;99.90
31729;DHT22;18309;43.658;1.312;2022-11-14T04:13:06;15.50;99.90
31729;DHT22;18309;43.658;1.312;2022-11-14T04:15:32;15.50;99.90
31729;DHT22;18309;43.658;1.312;2022-11-14T04:17:58;15.40;99.90
31729;DHT22;18309;43.658;1.312;2022-11-14T04:20:24;15.40;99.90
31729;DHT22;18309;43.658;1.312;2022-11-14T04:22:50;15.50;99.90
31729;DHT22;18309;43.658;1.312;2022-11-14T04:25:15;15.50;99.90
31729;DHT22;18309;43.658;1.312;2022-11-14T04:27:42;15.50;99.90
31729;DHT22;18309;43.658;1.312;2022-11-14T04:30:08;15.50;99.90
31729;DHT22;18309;43.658;1.312;2022-11-14T04:32:34;15.50;99.90
31729;DHT22;18309;43.658;1.312;2022-11-14T04:35:00;15.50;99.90
31729;DHT22;18309;43.658;1.312;2022-11-14T04:37:25;15.50;99.90
31729;DHT22;18309;43.658;1.312;2022-11-14T04:39:51;15.50;99.90
31729;DHT22;18309;43.658;1.312;2022-11-14T04:42:17;15.50;99.90
31729;DHT22;18309;43.658;1.312;2022-11-14T04:44:42;15.50;99.90
31729;DHT22;18309;43.658;1.312;2022-11-14T04:47:08;15.50;99.90
31729;DHT22;18309;43.658;1.312;2022-11-14T04:49:34;15.50;99.90
31729;DHT22;18309;43.658;1.312;2022-11-14T04:51:59;15.50;99.90
31729;DHT22;18309;43.658;1.312;2022-11-14T04:54:25;15.50;99.90
31729;DHT22;18309;43.658;1.312;2022-11-14T04:56:51;15.50;99.90
31729;DHT22;18309;43.658;1.312;2022-11-14T04:59:16;15.50;99.90
31729;DHT22;18309;43.658;1.312;2022-11-14T05:01:42;15.50;99.90
31729;DHT22;18309;43.658;1.312;2022-11-14T05:04:08;15.50;99.90
31729;DHT22;18309;43.658;1.312;2022-11-14T05:06:33;15.50;99.90
31729;DHT22;18309;43.658;1.312;2022-11-14T05:08:59;15.50;99.90
31729;DHT22;18309;43.658;1.312;2022-11-14T05:11:24;15.50;99.90
31729;DHT22;18309;43.658;1.312;2022-11-14T05:13:50;15.50;99.90
31729;DHT22;18309;43.658;1.312;2022-11-14T05:16:16;15.50;99.90
31729;DHT22;18309;43.658;1.312;2022-11-14T05:18:41;15.50;99.90
31729;DHT22;18309;43.658;1.312;2022-11-14T05:21:12;15.50;99.90
31729;DHT22;18309;43.658;1.312;2022-11-14T05:23:38;15.50;99.90
31729;DHT22;18309;43.658;1.312;2022-11-14T05:26:21;15.50;99.90
31729;DHT22;18309;43.658;1.312;2022-11-14T05:28:47;15.50;99.90
31729;DHT22;18309;43.658;1.312;2022-11-14T05:31:14;15.50;99.90
31729;DHT22;18309;43.658;1.312;2022-11-14T05:33:43;15.50;99.90
31729;DHT22;18309;43.658;1.312;2022-11-14T05:36:11;15.50;99.90
31729;DHT22;18309;43.658;1.312;2022-11-14T05:38:37;15.50;99.90
31729;DHT22;18309;43.658;1.312;2022-11-14T05:41:08;15.50;99.90
31729;DHT22;18309;43.658;1.312;2022-11-14T05:43:34;15.50;99.90
31729;DHT22;18309;43.658;1.312;2022-11-14T05:46:01;15.50;99.90
31729;DHT22;18309;43.658;1.312;2022-11-14T05:48:28;15.50;99.90
31729;DHT22;18309;43.658;1.312;2022-11-14T05:50:55;15.50;99.90
31729;DHT22;18309;43.658;1.312;2022-11-14T05:53:21;15.50;99.90
31729;DHT22;18309;43.658;1.312;2022-11-14T05:55:46;15.50;99.90
31729;DHT22;18309;43.658;1.312;2022-11-14T05:58:12;15.50;99.90
31729;DHT22;18309;43.658;1.312;2022-11-14T06:00:38;15.50;99.90
31729;DHT22;18309;43.658;1.312;2022-11-14T06:03:03;15.50;99.90
31729;DHT22;18309;43.658;1.312;2022-11-14T06:05:29;15.40;99.90
31729;DHT22;18309;43.658;1.312;2022-11-14T06:07:56;15.40;99.90
31729;DHT22;18309;43.658;1.312;2022-11-14T06:10:23;15.40;99.90
31729;DHT22;18309;43.658;1.312;2022-11-14T06:12:49;15.40;99.90
31729;DHT22;18309;43.658;1.312;2022-11-14T06:15:15;15.40;99.90
31729;DHT22;18309;43.658;1.312;2022-11-14T06:17:40;15.40;99.90
31729;DHT22;18309;43.658;1.312;2022-11-14T06:20:07;15.40;99.90
31729;DHT22;18309;43.658;1.312;2022-11-14T06:22:32;15.40;99.90
31729;DHT22;18309;43.658;1.312;2022-11-14T06:25:03;15.40;99.90
31729;DHT22;18309;43.658;1.312;2022-11-14T06:27:28;15.40;99.90
31729;DHT22;18309;43.658;1.312;2022-11-14T06:29:54;15.40;99.90
31729;DHT22;18309;43.658;1.312;2022-11-14T06:32:20;15.40;99.90
31729;DHT22;18309;43.658;1.312;2022-11-14T06:34:45;15.30;99.90
31729;DHT22;18309;43.658;1.312;2022-11-14T06:37:11;15.30;99.90
31729;DHT22;18309;43.658;1.312;2022-11-14T06:39:37;15.40;99.90
31729;DHT22;18309;43.658;1.312;2022-11-14T06:42:02;15.30;99.90
31729;DHT22;18309;43.658;1.312;2022-11-14T06:44:28;15.30;99.90
31729;DHT22;18309;43.658;1.312;2022-11-14T06:46:54;15.30;99.90
31729;DHT22;18309;43.658;1.312;2022-11-14T06:49:20;15.30;99.90
31729;DHT22;18309;43.658;1.312;2022-11-14T06:51:47;15.30;99.90
31729;DHT22;18309;43.658;1.312;2022-11-14T06:54:12;15.30;99.90
31729;DHT22;18309;43.658;1.312;2022-11-14T06:56:38;15.30;99.90
31729;DHT22;18309;43.658;1.312;2022-11-14T06:59:04;15.30;99.90
31729;DHT22;18309;43.658;1.312;2022-11-14T07:01:29;15.30;99.90
31729;DHT22;18309;43.658;1.312;2022-11-14T07:03:55;15.30;99.90
31729;DHT22;18309;43.658;1.312;2022-11-14T07:06:27;15.30;99.90
31729;DHT22;18309;43.658;1.312;2022-11-14T07:08:54;15.30;99.90
31729;DHT22;18309;43.658;1.312;2022-11-14T07:11:22;15.30;99.90
31729;DHT22;18309;43.658;1.312;2022-11-14T07:13:53;15.30;99.90
31729;DHT22;18309;43.658;1.312;2022-11-14T07:16:20;15.30;99.90
31729;DHT22;18309;43.658;1.312;2022-11-14T07:18:47;15.20;99.90
31729;DHT22;18309;43.658;1.312;2022-11-14T07:21:13;15.20;99.90
31729;DHT22;18309;43.658;1.312;2022-11-14T07:23:39;15.20;99.90
31729;DHT22;18309;43.658;1.312;2022-11-14T07:26:07;15.20;99.90
31729;DHT22;18309;43.658;1.312;2022-11-14T07:28:39;15.20;99.90
31729;DHT22;18309;43.658;1.312;2022-11-14T07:31:06;15.20;99.90
31729;DHT22;18309;43.658;1.312;2022-11-14T07:33:32;15.20;99.90
31729;DHT22;18309;43.658;1.312;2022-11-14T07:35:58;15.20;99.90
31729;DHT22;18309;43.658;1.312;2022-11-14T07:38:24;15.20;99.90
31729;DHT22;18309;43.658;1.312;2022-11-14T07:40:57;15.20;99.90
31729;DHT22;18309;43.658;1.312;2022-11-14T07:43:23;15.20;99.90
31729;DHT22;18309;43.658;1.312;2022-11-14T07:45:49;15.20;99.90
31729;DHT22;18309;43.658;1.312;2022-11-14T07:48:15;15.20;99.90
31729;DHT22;18309;43.658;1.312;2022-11-14T07:50:43;15.30;99.90
31729;DHT22;18309;43.658;1.312;2022-11-14T07:53:12;15.30;99.90
31729;DHT22;18309;43.658;1.312;2022-11-14T07:55:39;15.30;99.90
31729;DHT22;18309;43.658;1.312;2022-11-14T07:58:05;15.30;99.90
31729;DHT22;18309;43.658;1.312;2022-11-14T08:00:31;15.30;99.90
31729;DHT22;18309;43.658;1.312;2022-11-14T08:02:56;15.30;99.90
31729;DHT22;18309;43.658;1.312;2022-11-14T08:05:22;15.30;99.90
31729;DHT22;18309;43.658;1.312;2022-11-14T08:07:51;15.40;99.90
31729;DHT22;18309;43.658;1.312;2022-11-14T08:10:18;15.40;99.90
31729;DHT22;18309;43.658;1.312;2022-11-14T08:12:44;15.40;99.90
31729;DHT22;18309;43.658;1.312;2022-11-14T08:15:11;15.40;99.90
31729;DHT22;18309;43.658;1.312;2022-11-14T08:17:38;15.40;99.90
31729;DHT22;18309;43.658;1.312;2022-11-14T08:20:05;15.40;99.90
31729;DHT22;18309;43.658;1.312;2022-11-14T08:22:31;15.40;99.90
31729;DHT22;18309;43.658;1.312;2022-11-14T08:24:57;15.50;99.90
31729;DHT22;18309;43.658;1.312;2022-11-14T08:27:23;15.50;99.90
31729;DHT22;18309;43.658;1.312;2022-11-14T08:29:48;15.50;99.90
31729;DHT22;18309;43.658;1.312;2022-11-14T08:32:16;15.50;99.90
31729;DHT22;18309;43.658;1.312;2022-11-14T08:34:42;15.60;99.90
31729;DHT22;18309;43.658;1.312;2022-11-14T08:37:08;15.70;99.90
31729;DHT22;18309;43.658;1.312;2022-11-14T08:39:34;15.80;99.90
31729;DHT22;18309;43.658;1.312;2022-11-14T08:42:00;15.80;99.90
31729;DHT22;18309;43.658;1.312;2022-11-14T08:44:26;15.90;99.90
31729;DHT22;18309;43.658;1.312;2022-11-14T08:46:51;15.90;99.90
31729;DHT22;18309;43.658;1.312;2022-11-14T08:49:17;16.00;99.90
31729;DHT22;18309;43.658;1.312;2022-11-14T08:51:43;16.00;99.90
31729;DHT22;18309;43.658;1.312;2022-11-14T08:54:08;16.00;99.90
31729;DHT22;18309;43.658;1.312;2022-11-14T08:56:34;16.00;99.90
31729;DHT22;18309;43.658;1.312;2022-11-14T08:59:03;16.00;99.90
31729;DHT22;18309;43.658;1.312;2022-11-14T09:01:29;16.00;99.90
31729;DHT22;18309;43.658;1.312;2022-11-14T09:03:57;16.00;99.90
31729;DHT22;18309;43.658;1.312;2022-11-14T09:06:23;15.90;99.90
31729;DHT22;18309;43.658;1.312;2022-11-14T09:08:48;16.00;99.90
31729;DHT22;18309;43.658;1.312;2022-11-14T09:11:14;16.00;99.90
31729;DHT22;18309;43.658;1.312;2022-11-14T09:13:39;16.00;99.90
31729;DHT22;18309;43.658;1.312;2022-11-14T09:16:07;16.10;99.90
31729;DHT22;18309;43.658;1.312;2022-11-14T09:18:33;16.10;99.90
31729;DHT22;18309;43.658;1.312;2022-11-14T09:21:04;16.10;99.90
31729;DHT22;18309;43.658;1.312;2022-11-14T09:23:30;16.10;99.90
31729;DHT22;18309;43.658;1.312;2022-11-14T09:25:56;16.20;99.90
31729;DHT22;18309;43.658;1.312;2022-11-14T09:28:25;16.20;99.90
31729;DHT22;18309;43.658;1.312;2022-11-14T09:30:50;16.10;99.90
31729;DHT22;18309;43.658;1.312;2022-11-14T09:33:16;16.10;99.90
31729;DHT22;18309;43.658;1.312;2022-11-14T09:35:42;16.10;99.90
31729;DHT22;18309;43.658;1.312;2022-11-14T09:38:10;16.00;99.90
31729;DHT22;18309;43.658;1.312;2022-11-14T09:46:26;16.10;99.90
31729;DHT22;18309;43.658;1.312;2022-11-14T09:48:52;16.00;99.90
31729;DHT22;18309;43.658;1.312;2022-11-14T09:51:30;16.00;99.90
31729;DHT22;18309;43.658;1.312;2022-11-14T09:54:05;15.90;99.90
31729;DHT22;18309;43.658;1.312;2022-11-14T09:56:34;16.00;99.90
31729;DHT22;18309;43.658;1.312;2022-11-14T09:59:00;16.00;99.90
31729;DHT22;18309;43.658;1.312;2022-11-14T10:02:11;16.10;99.90
31729;DHT22;18309;43.658;1.312;2022-11-14T10:14:07;16.20;99.90
31729;DHT22;18309;43.658;1.312;2022-11-14T10:24:17;16.30;99.90
31729;DHT22;18309;43.658;1.312;2022-11-14T10:27:06;16.30;99.90
31729;DHT22;18309;43.658;1.312;2022-11-14T10:40:59;16.30;99.90
31729;DHT22;18309;43.658;1.312;2022-11-14T10:43:44;16.30;99.90
31729;DHT22;18309;43.658;1.312;2022-11-14T10:46:25;16.30;99.90
31729;DHT22;18309;43.658;1.312;2022-11-14T10:48:53;16.30;99.90
31729;DHT22;18309;43.658;1.312;2022-11-14T10:51:32;16.30;99.90
31729;DHT22;18309;43.658;1.312;2022-11-14T10:56:34;16.20;99.90
31729;DHT22;18309;43.658;1.312;2022-11-14T10:58:59;16.20;99.90
31729;DHT22;18309;43.658;1.312;2022-11-14T11:01:36;16.10;99.90
31729;DHT22;18309;43.658;1.312;2022-11-14T11:06:42;16.10;99.90
31729;DHT22;18309;43.658;1.312;2022-11-14T11:09:13;16.10;99.90
31729;DHT22;18309;43.658;1.312;2022-11-14T11:12:00;16.10;99.90
31729;DHT22;18309;43.658;1.312;2022-11-14T11:14:26;16.00;99.90
31729;DHT22;18309;43.658;1.312;2022-11-14T11:19:40;16.20;99.90
31729;DHT22;18309;43.658;1.312;2022-11-14T11:22:30;16.30;99.90
31729;DHT22;18309;43.658;1.312;2022-11-14T11:24:59;16.50;99.90
31729;DHT22;18309;43.658;1.312;2022-11-14T11:27:27;16.60;99.90
31729;DHT22;18309;43.658;1.312;2022-11-14T11:32:30;16.70;99.90
31729;DHT22;18309;43.658;1.312;2022-11-14T11:35:01;16.80;99.90
31729;DHT22;18309;43.658;1.312;2022-11-14T11:37:29;16.70;99.90
31729;DHT22;18309;43.658;1.312;2022-11-14T11:40:00;16.60;99.90
31729;DHT22;18309;43.658;1.312;2022-11-14T11:45:00;16.60;99.90
31729;DHT22;18309;43.658;1.312;2022-11-14T11:47:28;16.60;99.90
31729;DHT22;18309;43.658;1.312;2022-11-14T11:49:57;16.70;99.90
31729;DHT22;18309;43.658;1.312;2022-11-14T11:52:38;16.70;99.90
31729;DHT22;18309;43.658;1.312;2022-11-14T12:00:22;16.80;99.90
31729;DHT22;18309;43.658;1.312;2022-11-14T12:02:50;16.80;99.90
31729;DHT22;18309;43.658;1.312;2022-11-14T12:05:24;16.80;99.90
31729;DHT22;18309;43.658;1.312;2022-11-14T12:07:59;16.90;99.90
31729;DHT22;18309;43.658;1.312;2022-11-14T12:10:28;16.90;99.90
31729;DHT22;18309;43.658;1.312;2022-11-14T12:18:34;16.80;99.90
31729;DHT22;18309;43.658;1.312;2022-11-14T12:27:11;16.80;99.90
31729;DHT22;18309;43.658;1.312;2022-11-14T12:32:31;16.70;99.90
31729;DHT22;18309;43.658;1.312;2022-11-14T12:34:58;16.70;99.90
31729;DHT22;18309;43.658;1.312;2022-11-14T12:37:35;16.70;99.90
31729;DHT22;18309;43.658;1.312;2022-11-14T12:40:06;16.60;99.90
31729;DHT22;18309;43.658;1.312;2022-11-14T12:42:33;16.50;99.90
31729;DHT22;18309;43.658;1.312;2022-11-14T12:44:59;16.50;99.90
31729;DHT22;18309;43.658;1.312;2022-11-14T12:47:27;16.50;99.90
31729;DHT22;18309;43.658;1.312;2022-11-14T13:00:18;16.20;99.90
31729;DHT22;18309;43.658;1.312;2022-11-14T13:02:47;16.20;99.90
31729;DHT22;18309;43.658;1.312;2022-11-14T13:05:44;16.20;99.90
31729;DHT22;18309;43.658;1.312;2022-11-14T13:14:16;16.30;99.90
31729;DHT22;18309;43.658;1.312;2022-11-14T13:20:13;16.30;99.90
31729;DHT22;18309;43.658;1.312;2022-11-14T13:33:45;16.00;99.90
31729;DHT22;18309;43.658;1.312;2022-11-14T13:36:25;16.10;99.90
31729;DHT22;18309;43.658;1.312;2022-11-14T13:42:03;16.00;99.90
31729;DHT22;18309;43.658;1.312;2022-11-14T13:44:47;16.00;99.90
31729;DHT22;18309;43.658;1.312;2022-11-14T13:50:10;16.00;99.90
31729;DHT22;18309;43.658;1.312;2022-11-14T13:52:47;16.00;99.90
31729;DHT22;18309;43.658;1.312;2022-11-14T14:09:13;15.90;99.90
31729;DHT22;18309;43.658;1.312;2022-11-14T14:12:03;16.00;99.90
31729;DHT22;18309;43.658;1.312;2022-11-14T14:20:18;15.80;99.90
31729;DHT22;18309;43.658;1.312;2022-11-14T14:31:10;15.80;99.90
31729;DHT22;18309;43.658;1.312;2022-11-14T14:33:47;15.80;99.90
31729;DHT22;18309;43.658;1.312;2022-11-14T14:36:25;15.70;99.90
31729;DHT22;18309;43.658;1.312;2022-11-14T14:39:26;15.70;99.90
31729;DHT22;18309;43.658;1.312;2022-11-14T14:41:55;15.70;99.90
31729;DHT22;18309;43.658;1.312;2022-11-14T14:44:29;15.60;99.90
31729;DHT22;18309;43.658;1.312;2022-11-14T14:46:57;15.60;99.90
31729;DHT22;18309;43.658;1.312;2022-11-14T14:49:33;15.60;99.90
31729;DHT22;18309;43.658;1.312;2022-11-14T14:52:00;15.60;99.90
31729;DHT22;18309;43.658;1.312;2022-11-14T14:54:27;15.60;99.90
31729;DHT22;18309;43.658;1.312;2022-11-14T14:56:58;15.50;99.90
31729;DHT22;18309;43.658;1.312;2022-11-14T14:59:29;15.50;99.90
31729;DHT22;18309;43.658;1.312;2022-11-14T15:01:56;15.60;99.90
31729;DHT22;18309;43.658;1.312;2022-11-14T15:04:25;15.60;99.90
31729;DHT22;18309;43.658;1.312;2022-11-14T15:06:52;15.50;99.90
31729;DHT22;18309;43.658;1.312;2022-11-14T15:09:23;15.50;99.90
31729;DHT22;18309;43.658;1.312;2022-11-14T15:11:51;15.50;99.90
31729;DHT22;18309;43.658;1.312;2022-11-14T15:14:29;15.50;99.90
31729;DHT22;18309;43.658;1.312;2022-11-14T15:16:55;15.50;99.90
31729;DHT22;18309;43.658;1.312;2022-11-14T15:19:24;15.60;99.90
31729;DHT22;18309;43.658;1.312;2022-11-14T15:22:01;15.60;99.90
31729;DHT22;18309;43.658;1.312;2022-11-14T15:24:27;15.50;99.90
31729;DHT22;18309;43.658;1.312;2022-11-14T15:26:53;15.50;99.90
31729;DHT22;18309;43.658;1.312;2022-11-14T15:29:21;15.50;99.90
31729;DHT22;18309;43.658;1.312;2022-11-14T15:31:49;15.50;99.90
31729;DHT22;18309;43.658;1.312;2022-11-14T15:34:24;15.50;99.90
31729;DHT22;18309;43.658;1.312;2022-11-14T15:39:34;15.50;99.90
31729;DHT22;18309;43.658;1.312;2022-11-14T15:44:56;15.50;99.90
31729;DHT22;18309;43.658;1.312;2022-11-14T15:47:29;15.40;99.90
31729;DHT22;18309;43.658;1.312;2022-11-14T15:52:39;15.40;99.90
31729;DHT22;18309;43.658;1.312;2022-11-14T15:55:18;15.40;99.90
31729;DHT22;18309;43.658;1.312;2022-11-14T15:57:44;15.40;99.90
31729;DHT22;18309;43.658;1.312;2022-11-14T16:00:14;15.40;99.90
31729;DHT22;18309;43.658;1.312;2022-11-14T16:02:43;15.40;99.90
31729;DHT22;18309;43.658;1.312;2022-11-14T16:05:13;15.30;99.90
31729;DHT22;18309;43.658;1.312;2022-11-14T16:07:39;15.30;99.90
31729;DHT22;18309;43.658;1.312;2022-11-14T16:10:16;15.30;99.90
31729;DHT22;18309;43.658;1.312;2022-11-14T16:12:42;15.40;99.90
31729;DHT22;18309;43.658;1.312;2022-11-14T16:15:08;15.40;99.90
31729;DHT22;18309;43.658;1.312;2022-11-14T16:17:39;15.40;99.90
31729;DHT22;18309;43.658;1.312;2022-11-14T16:20:10;15.30;99.90
31729;DHT22;18309;43.658;1.312;2022-11-14T16:22:40;15.30;99.90
31729;DHT22;18309;43.658;1.312;2022-11-14T16:27:40;15.10;99.90
31729;DHT22;18309;43.658;1.312;2022-11-14T16:30:07;15.10;99.90
31729;DHT22;18309;43.658;1.312;2022-11-14T16:32:32;15.10;99.90
31729;DHT22;18309;43.658;1.312;2022-11-14T16:34:58;15.10;99.90
31729;DHT22;18309;43.658;1.312;2022-11-14T16:37:24;15.20;99.90
31729;DHT22;18309;43.658;1.312;2022-11-14T16:39:49;15.30;99.90
31729;DHT22;18309;43.658;1.312;2022-11-14T16:42:16;15.40;99.90
31729;DHT22;18309;43.658;1.312;2022-11-14T16:44:41;15.40;99.90
31729;DHT22;18309;43.658;1.312;2022-11-14T16:47:07;15.40;99.90
31729;DHT22;18309;43.658;1.312;2022-11-14T16:49:33;15.50;99.90
31729;DHT22;18309;43.658;1.312;2022-11-14T16:51:58;15.50;99.90
31729;DHT22;18309;43.658;1.312;2022-11-14T16:54:29;15.50;99.90
31729;DHT22;18309;43.658;1.312;2022-11-14T16:56:57;15.50;99.90
31729;DHT22;18309;43.658;1.312;2022-11-14T16:59:23;15.50;99.90
31729;DHT22;18309;43.658;1.312;2022-11-14T17:01:48;15.60;99.90
31729;DHT22;18309;43.658;1.312;2022-11-14T17:04:14;15.60;99.90
31729;DHT22;18309;43.658;1.312;2022-11-14T17:06:40;15.60;99.90
31729;DHT22;18309;43.658;1.312;2022-11-14T17:09:05;15.60;99.90
31729;DHT22;18309;43.658;1.312;2022-11-14T17:11:31;15.60;99.90
31729;DHT22;18309;43.658;1.312;2022-11-14T17:13:57;15.60;99.90
31729;DHT22;18309;43.658;1.312;2022-11-14T17:16:23;15.60;99.90
31729;DHT22;18309;43.658;1.312;2022-11-14T17:18:53;15.60;99.90
31729;DHT22;18309;43.658;1.312;2022-11-14T17:21:20;15.50;99.90
31729;DHT22;18309;43.658;1.312;2022-11-14T17:23:46;15.50;99.90
31729;DHT22;18309;43.658;1.312;2022-11-14T17:26:12;15.50;99.90
31729;DHT22;18309;43.658;1.312;2022-11-14T17:28:38;15.50;99.90
31729;DHT22;18309;43.658;1.312;2022-11-14T17:31:08;15.50;99.90
31729;DHT22;18309;43.658;1.312;2022-11-14T17:33:34;15.50;99.90
31729;DHT22;18309;43.658;1.312;2022-11-14T17:36:08;15.50;99.90
31729;DHT22;18309;43.658;1.312;2022-11-14T17:38:35;15.50;99.90
31729;DHT22;18309;43.658;1.312;2022-11-14T17:41:01;15.40;99.90
31729;DHT22;18309;43.658;1.312;2022-11-14T17:43:31;15.40;99.90
31729;DHT22;18309;43.658;1.312;2022-11-14T17:45:57;15.40;99.90
31729;DHT22;18309;43.658;1.312;2022-11-14T17:48:23;15.40;99.90
31729;DHT22;18309;43.658;1.312;2022-11-14T17:50:49;15.40;99.90
31729;DHT22;18309;43.658;1.312;2022-11-14T17:53:15;15.40;99.90
31729;DHT22;18309;43.658;1.312;2022-11-14T17:55:41;15.40;99.90
31729;DHT22;18309;43.658;1.312;2022-11-14T17:58:07;15.40;99.90
31729;DHT22;18309;43.658;1.312;2022-11-14T18:00:33;15.30;99.90